Time;durP1;ratioP1;P1;durP2;ratioP2;P2;SDS_P1;SDS_P2;PMS_P1;PMS_P2;Temp;Humidity;BMP_temperature;BMP_pressure;BME280_temperature;BME280_humidity;BME280_pressure;Samples;Min_cycle;Max_cycle;Signal;HPM_P1;HPM_P2
2023/05/19 00:02:19;;;;;;;0.50;0.50;;;;;;;14.19;47.33;101944.44;5229826;28;20086;-89
2023/05/19 00:05:13;;;;;;;0.75;0.75;;;;;;;14.05;47.39;101943.00;5226317;28;20032;-90
2023/05/19 00:08:06;;;;;;;0.50;0.50;;;;;;;14.01;46.60;101943.94;5246703;28;20169;-89
2023/05/19 00:10:57;;;;;;;0.53;0.53;;;;;;;14.07;46.71;101940.31;5239216;28;20028;-90
2023/05/19 00:13:49;;;;;;;0.40;0.40;;;;;;;14.08;46.73;101942.06;5226125;28;20278;-90
2023/05/19 00:16:41;;;;;;;0.60;0.60;;;;;;;14.07;47.15;101946.47;5239073;28;20042;-90
2023/05/19 00:19:32;;;;;;;2.13;0.90;;;;;;;14.06;47.71;101947.38;5242527;28;20024;-90
2023/05/19 00:22:23;;;;;;;1.00;1.00;;;;;;;13.93;46.54;101943.25;5227170;28;20101;-90
2023/05/19 00:25:13;;;;;;;1.27;1.17;;;;;;;13.97;46.60;101942.31;5233288;28;20028;-90
2023/05/19 00:28:04;;;;;;;0.30;0.30;;;;;;;13.95;46.78;101941.47;5221083;28;20035;-89
2023/05/19 00:30:55;;;;;;;3.50;1.95;;;;;;;13.94;47.05;101942.34;5212485;28;20697;-91
2023/05/19 00:33:46;;;;;;;0.40;0.40;;;;;;;13.92;47.23;101938.91;5222308;28;20476;-90
2023/05/19 00:36:37;;;;;;;5.68;1.48;;;;;;;13.84;47.42;101929.34;5222665;28;20036;-90
2023/05/19 00:39:27;;;;;;;0.45;0.45;;;;;;;13.91;47.64;101932.75;5221222;28;20082;-90
2023/05/19 00:42:19;;;;;;;0.57;0.57;;;;;;;13.85;47.83;101933.75;5215541;28;20139;-90
2023/05/19 00:45:10;;;;;;;1.65;0.60;;;;;;;13.87;47.12;101938.13;5247335;28;20036;-90
2023/05/19 00:48:01;;;;;;;0.50;0.50;;;;;;;13.88;48.02;101937.22;5240332;28;20036;-90
2023/05/19 00:50:54;;;;;;;0.77;0.77;;;;;;;13.83;47.81;101934.69;5224470;28;20054;-91
2023/05/19 00:53:47;;;;;;;0.50;0.50;;;;;;;13.82;47.65;101933.81;5217353;28;20062;-90
2023/05/19 00:56:38;;;;;;;0.30;0.30;;;;;;;13.81;47.94;101929.44;5214169;28;20032;-89
2023/05/19 00:59:29;;;;;;;0.30;0.30;;;;;;;13.76;47.54;101933.06;5224520;28;20174;-90
2023/05/19 01:02:20;;;;;;;1.23;1.02;;;;;;;13.78;48.28;101933.91;5230429;28;20510;-89
2023/05/19 01:05:12;;;;;;;0.40;0.40;;;;;;;13.75;48.12;101932.22;5237902;28;20056;-89
2023/05/19 01:08:03;;;;;;;2.70;0.60;;;;;;;13.62;48.63;101936.00;5246598;28;20036;-90
2023/05/19 01:10:54;;;;;;;1.35;0.85;;;;;;;13.66;48.02;101927.13;5242676;28;20059;-90
2023/05/19 01:13:45;;;;;;;0.70;0.43;;;;;;;13.59;49.84;101923.75;5234318;28;20035;-89
2023/05/19 01:16:41;;;;;;;0.70;0.70;;;;;;;13.56;48.80;101923.78;5222390;28;20032;-90
2023/05/19 01:19:55;;;;;;;0.57;0.57;;;;;;;13.52;49.19;101923.00;5218163;28;20035;-89
2023/05/19 01:23:16;;;;;;;0.52;0.52;;;;;;;13.44;48.86;101917.00;5224648;28;20070;-90
2023/05/19 01:26:29;;;;;;;2.60;0.55;;;;;;;13.45;49.51;101913.47;5215462;28;20400;-90
2023/05/19 01:29:31;;;;;;;0.70;0.70;;;;;;;13.41;49.25;101919.72;5230973;28;20029;-91
2023/05/19 01:32:24;;;;;;;0.40;0.40;;;;;;;13.41;49.26;101917.09;5236717;28;20528;-90
2023/05/19 01:35:16;;;;;;;0.45;0.45;;;;;;;13.38;49.31;101919.75;5246771;28;20048;-90
2023/05/19 01:38:08;;;;;;;0.40;0.40;;;;;;;13.33;49.25;101914.56;5233240;28;20119;-91
2023/05/19 01:41:02;;;;;;;0.60;0.60;;;;;;;13.26;48.90;101918.22;5241216;28;20024;-91
2023/05/19 01:43:53;;;;;;;;;;;;;;;13.23;49.23;101919.16;5217584;28;20069;-91
2023/05/19 01:46:44;;;;;;;0.32;0.32;;;;;;;13.22;49.34;101914.75;5249724;28;19969;-90
2023/05/19 01:49:35;;;;;;;1.35;1.23;;;;;;;13.20;49.20;101921.81;5232505;28;20171;-91
2023/05/19 01:52:26;;;;;;;0.77;0.77;;;;;;;13.10;49.41;101914.13;5216701;28;20742;-90
2023/05/19 01:55:17;;;;;;;0.32;0.32;;;;;;;13.11;49.16;101927.25;5219801;28;20078;-90
2023/05/19 01:58:14;;;;;;;0.30;0.30;;;;;;;13.08;49.42;101927.34;5215957;28;20052;-90
2023/05/19 02:01:40;;;;;;;1.25;0.70;;;;;;;13.02;50.15;101927.44;5218145;28;20036;-90
2023/05/19 02:04:51;;;;;;;0.80;0.80;;;;;;;12.98;49.80;101926.63;5225825;28;20090;-90
2023/05/19 02:08:00;;;;;;;0.30;0.30;;;;;;;12.93;49.83;101925.84;5228962;28;20092;-90
2023/05/19 02:10:56;;;;;;;3.67;1.50;;;;;;;12.91;49.51;101930.25;5233197;28;20029;-90
2023/05/19 02:13:52;;;;;;;0.30;0.30;;;;;;;12.84;50.06;101928.63;5228305;28;20024;-90
2023/05/19 02:16:44;;;;;;;0.20;0.20;;;;;;;12.79;49.37;101938.38;5215070;28;20113;-90
2023/05/19 02:19:38;;;;;;;0.50;0.50;;;;;;;12.69;49.89;101930.63;5222340;28;20115;-91
2023/05/19 02:22:29;;;;;;;0.30;0.30;;;;;;;12.73;49.93;101926.19;5231876;28;20033;-90
2023/05/19 02:25:20;;;;;;;0.25;0.25;;;;;;;12.72;50.07;101925.31;5214849;28;20070;-90
2023/05/19 02:28:11;;;;;;;0.40;0.40;;;;;;;12.60;49.71;101918.47;5215283;28;20086;-90
2023/05/19 02:31:04;;;;;;;0.35;0.35;;;;;;;12.56;50.02;101919.44;5221009;28;20415;-90
2023/05/19 02:33:54;;;;;;;0.20;0.20;;;;;;;12.63;50.24;101924.59;5230600;28;20942;-89
2023/05/19 02:36:48;;;;;;;0.25;0.25;;;;;;;12.54;49.82;101921.22;5234553;28;20040;-89
2023/05/19 02:39:42;;;;;;;0.50;0.50;;;;;;;12.57;50.58;101909.75;5230207;28;20021;-90
2023/05/19 02:42:33;;;;;;;0.68;0.63;;;;;;;12.54;50.00;101908.06;5253696;28;20037;-89
2023/05/19 02:45:27;;;;;;;13.52;1.00;;;;;;;12.57;50.53;101905.38;5228663;28;20098;-90
2023/05/19 02:48:18;;;;;;;0.28;0.28;;;;;;;12.52;50.69;101906.34;5233932;28;20040;-89
2023/05/19 02:51:08;;;;;;;0.28;0.28;;;;;;;12.49;50.47;101896.75;5217292;28;20483;-90
2023/05/19 02:53:59;;;;;;;1.00;1.00;;;;;;;12.42;51.21;101898.59;5226662;28;20021;-89
2023/05/19 02:56:50;;;;;;;0.30;0.30;;;;;;;12.40;51.20;101897.75;5226917;28;20264;-89
2023/05/19 02:59:41;;;;;;;0.40;0.40;;;;;;;12.41;51.47;101899.47;5228152;28;20054;-90
2023/05/19 03:02:32;;;;;;;0.75;0.75;;;;;;;12.39;50.67;101901.28;5245929;28;20089;-90
2023/05/19 03:05:23;;;;;;;0.30;0.30;;;;;;;12.34;51.45;101900.47;5253445;28;20020;-89
2023/05/19 03:08:14;;;;;;;0.22;0.22;;;;;;;12.29;51.30;101902.31;5244701;28;20044;-89
2023/05/19 03:11:05;;;;;;;0.25;0.25;;;;;;;12.27;51.55;101912.84;5235478;28;20084;-89
2023/05/19 03:13:56;;;;;;;2.13;0.98;;;;;;;12.19;51.63;101913.88;5246868;28;20027;-89
2023/05/19 03:16:47;;;;;;;0.50;0.50;;;;;;;12.21;50.90;101912.09;5233626;28;20396;-90
2023/05/19 03:19:38;;;;;;;0.85;0.43;;;;;;;12.18;51.32;101912.13;5252718;28;20020;-90
2023/05/19 03:22:28;;;;;;;0.28;0.28;;;;;;;12.11;51.08;101911.34;5228247;28;20092;-90
2023/05/19 03:25:19;;;;;;;0.35;0.35;;;;;;;12.07;51.05;101905.25;5256552;28;20174;-89
2023/05/19 03:28:10;;;;;;;1.15;1.05;;;;;;;12.08;51.95;101900.88;5221196;28;20698;-89
2023/05/19 03:31:01;;;;;;;0.50;0.50;;;;;;;12.06;51.35;101903.53;5219109;28;20536;-89
2023/05/19 03:33:51;;;;;;;0.30;0.30;;;;;;;12.07;51.11;101904.41;5233067;28;20016;-90
2023/05/19 03:36:43;;;;;;;2.97;1.27;;;;;;;11.95;51.09;101903.63;5218712;28;20063;-90
2023/05/19 03:39:34;;;;;;;0.30;0.30;;;;;;;11.98;52.34;101904.53;5224717;28;20028;-90
2023/05/19 03:42:25;;;;;;;0.30;0.30;;;;;;;11.91;51.74;101904.59;5220958;28;20033;-89
2023/05/19 03:45:16;;;;;;;0.75;0.75;;;;;;;11.93;51.90;101910.69;5216403;28;20036;-90
2023/05/19 03:48:06;;;;;;;0.30;0.30;;;;;;;11.93;52.42;101905.44;5218604;28;20028;-90
2023/05/19 03:50:57;;;;;;;0.52;0.52;;;;;;;11.93;52.68;101904.56;5242866;28;20058;-89
2023/05/19 03:53:48;;;;;;;0.30;0.30;;;;;;;11.90;51.40;101913.34;5221657;28;20442;-90
2023/05/19 03:56:41;;;;;;;2.50;1.58;;;;;;;11.88;52.01;101907.25;5232466;28;20047;-89
2023/05/19 03:59:32;;;;;;;0.95;0.95;;;;;;;11.72;52.62;101905.69;5223052;28;20077;-89
2023/05/19 04:02:22;;;;;;;0.45;0.45;;;;;;;11.77;52.43;101903.91;5225916;28;20036;-89
2023/05/19 04:05:13;;;;;;;0.50;0.50;;;;;;;11.73;52.33;101907.44;5224631;28;20029;-89
2023/05/19 04:08:04;;;;;;;1.17;0.80;;;;;;;11.70;52.56;101910.09;5221985;28;20024;-90
2023/05/19 04:10:55;;;;;;;0.40;0.40;;;;;;;11.67;51.75;101904.91;5224206;28;20017;-90
2023/05/19 04:13:46;;;;;;;0.38;0.38;;;;;;;11.66;52.34;101906.66;5228001;28;20024;-89
2023/05/19 04:16:37;;;;;;;0.60;0.38;;;;;;;11.58;52.72;101905.88;5216685;28;20133;-90
2023/05/19 04:19:28;;;;;;;5.80;1.38;;;;;;;11.57;52.17;101907.66;5220571;28;20032;-89
2023/05/19 04:22:19;;;;;;;0.47;0.47;;;;;;;11.53;52.59;101903.28;5234847;28;20601;-88
2023/05/19 04:25:09;;;;;;;0.70;0.70;;;;;;;11.54;51.94;101898.94;5219207;28;20138;-89
2023/05/19 04:28:01;;;;;;;0.30;0.30;;;;;;;11.54;52.32;101909.44;5232482;28;20103;-90
2023/05/19 04:30:52;;;;;;;3.70;1.10;;;;;;;11.52;52.95;101911.22;5212880;28;20051;-88
2023/05/19 04:33:43;;;;;;;0.57;0.57;;;;;;;11.39;53.73;101902.59;5232318;28;20024;-91
2023/05/19 04:36:34;;;;;;;0.98;0.98;;;;;;;11.33;53.91;101912.31;5225218;28;20033;-90
2023/05/19 04:39:25;;;;;;;0.47;0.47;;;;;;;11.42;53.56;101908.69;5234671;28;20057;-89
2023/05/19 04:42:18;;;;;;;0.47;0.47;;;;;;;11.44;53.00;101912.19;5230593;28;20091;-89
2023/05/19 04:45:11;;;;;;;0.85;0.85;;;;;;;11.43;53.21;101914.84;5234500;28;20119;-89
2023/05/19 04:48:02;;;;;;;0.60;0.60;;;;;;;11.43;52.72;101917.47;5228757;28;20052;-90
2023/05/19 04:50:53;;;;;;;0.50;0.50;;;;;;;11.46;53.06;101920.91;5233391;28;20111;-89
2023/05/19 04:53:44;;;;;;;0.22;0.22;;;;;;;11.40;52.78;101922.75;5229090;28;20562;-89
2023/05/19 04:56:35;;;;;;;0.40;0.40;;;;;;;11.38;53.63;101924.50;5216682;28;20049;-89
2023/05/19 04:59:26;;;;;;;0.52;0.52;;;;;;;11.36;53.18;101919.28;5229926;28;20523;-89
2023/05/19 05:02:17;;;;;;;0.93;0.93;;;;;;;11.26;54.64;101926.41;5230143;28;20036;-89
2023/05/19 05:05:08;;;;;;;0.40;0.40;;;;;;;11.40;54.37;101922.75;5232907;28;20055;-89
2023/05/19 05:07:59;;;;;;;7.03;1.25;;;;;;;11.27;54.42;101917.63;5230090;28;20579;-89
2023/05/19 05:10:51;;;;;;;1.27;1.13;;;;;;;11.39;54.09;101926.25;5213118;28;20025;-90
2023/05/19 05:13:42;;;;;;;2.65;0.93;;;;;;;11.41;54.49;101924.47;5218291;28;20021;-89
2023/05/19 05:16:33;;;;;;;3.20;0.82;;;;;;;11.33;54.50;101924.56;5231223;28;20116;-90
2023/05/19 05:19:24;;;;;;;0.73;0.73;;;;;;;11.42;54.03;101927.09;5233855;28;20036;-90
2023/05/19 05:22:15;;;;;;;0.77;0.63;;;;;;;11.45;54.15;101920.91;5223232;28;20063;-89
2023/05/19 05:25:07;;;;;;;3.65;1.80;;;;;;;11.36;54.59;101916.66;5226625;28;20029;-90
2023/05/19 05:27:58;;;;;;;5.05;1.85;;;;;;;11.42;54.18;101915.72;5228184;28;20032;-87
2023/05/19 05:30:49;;;;;;;0.28;0.28;;;;;;;11.26;55.25;101915.88;5227086;28;20047;-89
2023/05/19 05:33:41;;;;;;;0.20;0.20;;;;;;;11.38;54.20;101924.50;5241445;28;20031;-88
2023/05/19 05:36:33;;;;;;;2.45;0.90;;;;;;;11.36;55.31;101918.41;5211371;28;20032;-88
2023/05/19 05:39:25;;;;;;;1.42;1.40;;;;;;;11.42;55.47;101915.72;5227059;28;20067;-88
2023/05/19 05:42:16;;;;;;;0.22;0.22;;;;;;;11.45;54.31;101920.91;5234711;28;20064;-87
2023/05/19 05:45:08;;;;;;;0.65;0.65;;;;;;;11.34;58.43;101921.94;5231245;28;20484;-88
2023/05/19 05:47:59;;;;;;;0.47;0.47;;;;;;;11.39;56.64;101916.63;5216737;28;20025;-88
2023/05/19 05:50:50;;;;;;;0.40;0.40;;;;;;;11.20;59.46;101915.94;5236607;28;20499;-87
2023/05/19 05:53:45;;;;;;;0.88;0.68;;;;;;;11.36;57.48;101913.16;5224934;28;20699;-88
2023/05/19 05:56:36;;;;;;;0.63;0.63;;;;;;;11.40;57.21;101910.50;5228874;28;20121;-87
2023/05/19 05:59:26;;;;;;;3.30;1.00;;;;;;;11.32;56.61;101897.41;5218049;28;20021;-89
2023/05/19 06:02:17;;;;;;;0.55;0.55;;;;;;;11.16;59.95;101903.72;5212448;28;20040;-87
2023/05/19 06:05:11;;;;;;;0.32;0.32;;;;;;;11.32;57.19;101902.69;5236432;28;20466;-86
2023/05/19 06:08:02;;;;;;;0.50;0.50;;;;;;;11.44;57.75;101904.28;5230024;28;20032;-87
2023/05/19 06:10:53;;;;;;;0.30;0.30;;;;;;;11.42;57.34;101910.47;5231371;28;20111;-88
2023/05/19 06:13:43;;;;;;;1.13;1.02;;;;;;;11.53;56.44;101903.28;5228605;28;20072;-87
2023/05/19 06:16:34;;;;;;;0.73;0.70;;;;;;;11.55;56.35;101904.16;5213472;28;20160;-87
2023/05/19 06:19:25;;;;;;;0.50;0.50;;;;;;;11.62;55.67;101903.19;5225245;28;20090;-87
2023/05/19 06:22:16;;;;;;;0.35;0.35;;;;;;;11.70;55.70;101891.69;5221460;28;20083;-87
2023/05/19 06:25:07;;;;;;;1.05;1.05;;;;;;;11.55;58.25;101900.66;5225162;28;20072;-87
2023/05/19 06:27:58;;;;;;;0.68;0.68;;;;;;;11.76;56.10;101899.53;5225885;28;20033;-87
2023/05/19 06:30:49;;;;;;;0.70;0.70;;;;;;;11.74;56.48;101901.31;5210503;28;20031;-87
2023/05/19 06:33:40;;;;;;;0.52;0.52;;;;;;;11.90;58.49;101897.56;5235609;28;20059;-87
2023/05/19 06:36:31;;;;;;;0.45;0.45;;;;;;;11.71;58.57;101896.97;5205411;28;20082;-87
2023/05/19 06:39:21;;;;;;;1.52;1.42;;;;;;;11.72;58.44;101889.94;5210987;28;20173;-87
2023/05/19 06:42:12;;;;;;;1.27;1.05;;;;;;;11.98;58.15;101904.53;5210293;28;20033;-86
2023/05/19 06:45:03;;;;;;;0.50;0.50;;;;;;;11.93;58.62;101901.91;5205104;28;20032;-89
2023/05/19 06:47:57;;;;;;;0.50;0.50;;;;;;;12.01;58.19;101904.50;5208847;28;20029;-89
2023/05/19 06:50:47;;;;;;;0.57;0.57;;;;;;;11.96;60.67;101907.16;5214658;28;20577;-88
2023/05/19 06:53:38;;;;;;;0.20;0.20;;;;;;;12.05;58.35;101900.91;5226577;28;20028;-88
2023/05/19 06:56:29;;;;;;;0.30;0.30;;;;;;;12.07;59.87;101893.88;5235019;28;20047;-89
2023/05/19 06:59:21;;;;;;;0.30;0.30;;;;;;;12.38;58.23;101904.81;5225392;28;20411;-89
2023/05/19 07:02:12;;;;;;;0.73;0.73;;;;;;;12.44;58.19;101907.34;5212574;28;20067;-90
2023/05/19 07:05:03;;;;;;;0.52;0.52;;;;;;;12.36;59.29;101890.81;5229785;28;20553;-90
2023/05/19 07:07:54;;;;;;;0.80;0.80;;;;;;;12.44;59.81;101903.81;5226606;28;20037;-88
2023/05/19 07:10:45;;;;;;;1.23;1.13;;;;;;;12.55;57.40;101901.91;5215244;28;20408;-90
2023/05/19 07:13:36;;;;;;;0.68;0.68;;;;;;;12.58;57.05;101901.84;5216918;28;20047;-90
2023/05/19 07:16:27;;;;;;;0.28;0.28;;;;;;;12.64;57.12;101900.88;5217231;28;20041;-91
2023/05/19 07:19:18;;;;;;;0.50;0.50;;;;;;;12.71;57.08;101909.53;5231124;28;20259;-90
2023/05/19 07:22:09;;;;;;;0.50;0.50;;;;;;;12.78;57.76;101899.78;5217100;28;20067;-90
2023/05/19 07:25:00;;;;;;;0.55;0.55;;;;;;;12.75;57.93;101893.66;5209976;28;20523;-91
2023/05/19 07:27:50;;;;;;;0.35;0.35;;;;;;;12.82;57.73;101894.44;5227828;28;20032;-90
2023/05/19 07:30:41;;;;;;;1.52;1.10;;;;;;;12.83;57.52;101890.91;5234335;28;20021;-90
2023/05/19 07:33:32;;;;;;;0.73;0.73;;;;;;;12.86;57.83;101890.81;5226681;28;20032;-89
2023/05/19 07:36:23;;;;;;;0.50;0.50;;;;;;;12.85;57.61;101889.09;5225980;28;20024;-90
2023/05/19 07:39:14;;;;;;;0.85;0.85;;;;;;;13.02;57.10;101891.44;5226405;28;20039;-90
2023/05/19 07:42:04;;;;;;;0.40;0.40;;;;;;;12.94;58.76;101887.19;5211243;28;20037;-89
2023/05/19 07:44:55;;;;;;;0.20;0.20;;;;;;;12.96;58.04;101885.41;5244739;28;20074;-89
2023/05/19 07:47:46;;;;;;;0.20;0.20;;;;;;;13.02;58.23;101885.28;5240443;28;20039;-89
2023/05/19 07:50:37;;;;;;;0.30;0.30;;;;;;;13.12;56.03;101880.72;5222100;28;20421;-90
2023/05/19 07:53:27;;;;;;;4.65;1.33;;;;;;;13.21;54.97;101885.81;5216800;28;20456;-89
2023/05/19 07:56:18;;;;;;;2.45;1.20;;;;;;;13.22;54.65;101883.13;5230071;28;20043;-90
2023/05/19 07:59:09;;;;;;;0.73;0.73;;;;;;;13.27;54.63;101869.88;5233429;28;20021;-90
2023/05/19 08:02:00;;;;;;;0.25;0.25;;;;;;;13.28;54.67;101884.78;5234319;28;20036;-90
2023/05/19 08:04:51;;;;;;;0.40;0.40;;;;;;;13.35;53.61;101877.59;5231370;28;20020;-90
2023/05/19 08:07:42;;;;;;;0.35;0.35;;;;;;;13.40;53.98;101877.56;5213944;28;20615;-90
2023/05/19 08:10:33;;;;;;;1.05;0.75;;;;;;;13.52;53.12;101870.25;5244488;28;20033;-90
2023/05/19 08:13:24;;;;;;;2.05;1.95;;;;;;;13.56;53.39;101870.19;5227548;28;20041;-89
2023/05/19 08:16:15;;;;;;;0.20;0.20;;;;;;;13.60;53.90;101877.13;5242224;28;20036;-89
2023/05/19 08:19:06;;;;;;;0.30;0.30;;;;;;;13.79;53.04;101873.22;5221777;28;20088;-89
2023/05/19 08:21:59;;;;;;;0.22;0.22;;;;;;;13.79;52.73;101877.63;5217918;28;20032;-89
2023/05/19 08:24:50;;;;;;;0.40;0.40;;;;;;;13.76;52.82;101862.72;5249908;28;20025;-89
2023/05/19 08:27:41;;;;;;;1.35;1.10;;;;;;;13.85;53.26;101862.50;5240159;28;20036;-89
2023/05/19 08:30:32;;;;;;;0.20;0.20;;;;;;;13.85;53.66;101857.22;5249692;28;20100;-90
2023/05/19 08:33:23;;;;;;;0.30;0.30;;;;;;;13.93;53.59;101857.06;5259064;28;20041;-91
2023/05/19 08:36:13;;;;;;;0.45;0.45;;;;;;;14.04;53.20;101854.19;5240214;28;20036;-90
2023/05/19 08:39:05;;;;;;;0.68;0.55;;;;;;;14.03;52.78;101855.06;5226043;28;20029;-91
2023/05/19 08:41:56;;;;;;;0.20;0.20;;;;;;;14.07;53.23;101848.84;5217056;28;20408;-91
2023/05/19 08:44:47;;;;;;;4.15;1.20;;;;;;;14.17;51.86;101849.47;5224823;28;20123;-91
2023/05/19 08:47:40;;;;;;;2.03;0.98;;;;;;;14.19;52.93;101844.16;5215284;28;20082;-90
2023/05/19 08:50:38;;;;;;;0.20;0.20;;;;;;;14.23;53.13;101837.91;5234211;28;20036;-91
2023/05/19 08:53:35;;;;;;;0.38;0.38;;;;;;;14.33;52.97;101836.78;5231516;28;20658;-91
2023/05/19 08:56:26;;;;;;;1.95;1.17;;;;;;;14.48;52.41;101831.09;5230714;28;20043;-91
2023/05/19 08:59:18;;;;;;;1.85;1.10;;;;;;;14.48;52.86;101827.59;5233045;28;20044;-89
2023/05/19 09:02:11;;;;;;;0.50;0.50;;;;;;;14.72;51.42;101833.16;5218872;28;20028;-90
2023/05/19 09:05:03;;;;;;;0.40;0.40;;;;;;;14.62;51.82;101829.88;5233466;28;20052;-90
2023/05/19 09:07:54;;;;;;;0.95;0.95;;;;;;;14.58;51.20;101831.72;5214063;28;20040;-90
2023/05/19 09:10:45;;;;;;;0.40;0.40;;;;;;;14.66;51.64;101830.66;5216537;28;20495;-90
2023/05/19 09:13:36;;;;;;;0.30;0.30;;;;;;;14.81;51.12;101819.69;5214343;28;20064;-90
2023/05/19 09:16:27;;;;;;;0.85;0.80;;;;;;;14.75;51.77;101817.25;5228279;28;20039;-91
2023/05/19 09:19:20;;;;;;;0.20;0.20;;;;;;;14.89;50.40;101812.44;5215497;28;20032;-91
2023/05/19 09:22:10;;;;;;;0.50;0.50;;;;;;;15.01;48.79;101819.16;5227344;28;20063;-91
2023/05/19 09:25:01;;;;;;;0.82;0.82;;;;;;;14.95;50.13;101816.69;5215784;28;20024;-90
2023/05/19 09:27:54;;;;;;;0.43;0.43;;;;;;;15.09;50.74;101806.59;5217903;28;20147;-91
2023/05/19 09:30:44;;;;;;;0.20;0.20;;;;;;;15.25;49.02;101808.78;5237938;28;20093;-90
2023/05/19 09:33:41;;;;;;;0.30;0.30;;;;;;;15.37;50.07;101800.50;5236376;28;20045;-91
2023/05/19 09:36:31;;;;;;;0.75;0.57;;;;;;;15.39;49.22;101801.31;5233756;28;20032;-90
2023/05/19 09:39:23;;;;;;;0.50;0.50;;;;;;;15.36;49.79;101804.06;5237999;28;20036;-90
2023/05/19 09:42:15;;;;;;;0.80;0.40;;;;;;;15.49;49.28;101790.47;5218995;28;20261;-88
2023/05/19 09:45:10;;;;;;;0.88;0.55;;;;;;;15.60;47.50;101792.78;5230265;28;20024;-89
2023/05/19 09:48:05;;;;;;;0.30;0.30;;;;;;;15.65;47.92;101788.19;5217248;28;20052;-89
2023/05/19 09:50:56;;;;;;;0.65;0.65;;;;;;;15.61;47.54;101782.13;5238821;28;20027;-89
2023/05/19 09:53:47;;;;;;;0.70;0.70;;;;;;;15.72;46.45;101774.75;5223105;28;20021;-90
2023/05/19 09:56:39;;;;;;;1.52;1.38;;;;;;;15.87;47.65;101772.53;5214245;28;20040;-89
2023/05/19 09:59:30;;;;;;;0.63;0.50;;;;;;;16.02;48.21;101766.75;5224201;28;20040;-90
2023/05/19 10:02:24;;;;;;;0.85;0.70;;;;;;;16.02;46.81;101772.03;5252382;28;20051;-91
2023/05/19 10:05:18;;;;;;;2.00;1.60;;;;;;;16.07;47.52;101778.97;5237597;28;20066;-91
2023/05/19 10:08:10;;;;;;;0.20;0.20;;;;;;;16.21;46.92;101771.41;5234929;28;20091;-90
2023/05/19 10:11:02;;;;;;;1.75;1.05;;;;;;;16.39;47.33;101779.66;5216094;28;20031;-90
2023/05/19 10:13:52;;;;;;;0.20;0.20;;;;;;;16.45;46.79;101782.94;5213640;28;20036;-91
2023/05/19 10:16:44;;;;;;;1.63;0.65;;;;;;;16.51;46.03;101779.22;5216411;28;20031;-90
2023/05/19 10:19:37;;;;;;;0.68;0.65;;;;;;;16.45;44.25;101774.13;5219632;28;20140;-90
2023/05/19 10:22:27;;;;;;;5.20;1.38;;;;;;;16.47;44.05;101774.94;5212160;28;20037;-91
2023/05/19 10:25:18;;;;;;;0.20;0.20;;;;;;;16.55;45.42;101775.56;5252211;28;20043;-90
2023/05/19 10:28:16;;;;;;;0.30;0.30;;;;;;;16.60;44.03;101776.25;5213108;28;20078;-90
2023/05/19 10:31:12;;;;;;;0.25;0.25;;;;;;;16.62;43.82;101771.75;5221522;28;20036;-91
2023/05/19 10:34:20;;;;;;;0.22;0.22;;;;;;;16.59;44.18;101765.72;5216829;28;20032;-90
2023/05/19 10:37:19;;;;;;;0.77;0.77;;;;;;;16.71;43.29;101775.00;5227241;28;20407;-90
2023/05/19 10:40:19;;;;;;;1.45;1.35;;;;;;;16.72;43.11;101763.47;5230539;28;20048;-91
2023/05/19 10:43:19;;;;;;;0.38;0.38;;;;;;;16.84;44.73;101770.97;5224695;28;20110;-90
2023/05/19 10:46:10;;;;;;;0.43;0.43;;;;;;;16.84;43.33;101760.38;5232244;28;20040;-90
2023/05/19 10:49:00;;;;;;;0.20;0.20;;;;;;;16.87;44.32;101765.56;5225362;28;20021;-90
2023/05/19 10:51:55;;;;;;;0.20;0.20;;;;;;;16.90;43.76;101757.47;5230573;28;20028;-91
2023/05/19 10:54:46;;;;;;;1.45;1.30;;;;;;;17.10;43.56;101767.41;5230656;28;20036;-91
2023/05/19 10:57:36;;;;;;;1.08;0.80;;;;;;;17.09;42.73;101762.13;5248514;28;20060;-90
2023/05/19 11:00:29;;;;;;;2.35;0.55;;;;;;;17.13;41.90;101751.34;5224437;28;20040;-90
2023/05/19 11:03:22;;;;;;;0.47;0.47;;;;;;;17.24;42.46;101742.13;5222229;28;20452;-89
2023/05/19 11:06:25;;;;;;;0.30;0.30;;;;;;;17.33;42.87;101738.22;5218039;28;20040;-90
2023/05/19 11:09:20;;;;;;;0.63;0.63;;;;;;;17.29;42.49;101741.03;5226456;28;20033;-90
2023/05/19 11:12:11;;;;;;;0.22;0.22;;;;;;;17.38;41.94;101736.28;5228830;28;20127;-92
2023/05/19 11:15:02;;;;;;;0.40;0.40;;;;;;;17.74;42.50;101735.69;5234661;28;20028;-90
2023/05/19 11:17:54;;;;;;;0.88;0.88;;;;;;;17.52;41.63;101738.41;5214039;28;20480;-90
2023/05/19 11:20:57;;;;;;;1.25;0.82;;;;;;;17.66;42.39;101743.13;5220058;28;20786;-91
2023/05/19 11:23:49;;;;;;;0.20;0.20;;;;;;;17.70;42.30;101729.66;5226505;28;20044;-89
2023/05/19 11:26:42;;;;;;;0.53;0.53;;;;;;;17.73;41.81;101720.69;5220781;28;20025;-90
2023/05/19 11:29:33;;;;;;;0.47;0.47;;;;;;;17.86;42.46;101723.72;5237613;28;20028;-91
2023/05/19 11:32:33;;;;;;;0.40;0.40;;;;;;;18.03;42.13;101731.03;5229447;28;20037;-90
2023/05/19 11:35:25;;;;;;;0.75;0.45;;;;;;;18.15;41.37;101730.47;5218489;28;20032;-89
2023/05/19 11:38:17;;;;;;;0.30;0.30;;;;;;;18.14;42.38;101733.22;5234598;28;20044;-92
2023/05/19 11:41:08;;;;;;;0.30;0.30;;;;;;;18.35;41.35;101726.09;5219697;28;20024;-91
2023/05/19 11:43:59;;;;;;;0.60;0.60;;;;;;;18.31;41.27;101727.16;5217570;28;20857;-92
2023/05/19 11:46:50;;;;;;;0.20;0.20;;;;;;;18.40;40.31;101719.66;5227207;28;20104;-90
2023/05/19 11:49:47;;;;;;;1.33;0.63;;;;;;;18.59;39.94;101726.81;5218047;28;20031;-90
2023/05/19 11:52:43;;;;;;;0.45;0.45;;;;;;;18.58;41.02;101713.59;5230547;28;20082;-91
2023/05/19 11:55:34;;;;;;;0.35;0.35;;;;;;;18.63;39.95;101716.91;5250386;28;20119;-91
2023/05/19 11:58:26;;;;;;;0.82;0.57;;;;;;;18.69;40.74;101708.66;5257038;28;20048;-92
2023/05/19 12:01:18;;;;;;;5.13;1.30;;;;;;;18.67;38.22;101706.06;5220333;28;20470;-92
2023/05/19 12:04:09;;;;;;;0.47;0.40;;;;;;;18.65;39.97;101702.63;5229696;28;20109;-91
2023/05/19 12:07:00;;;;;;;1.42;0.38;;;;;;;18.50;38.63;101704.16;5230413;28;20080;-92
2023/05/19 12:09:51;;;;;;;0.38;0.38;;;;;;;18.71;39.49;101696.16;5225884;28;20043;-89
2023/05/19 12:12:44;;;;;;;4.07;0.63;;;;;;;18.85;40.71;101693.72;5238267;28;20119;-88
2023/05/19 12:15:35;;;;;;;0.60;0.60;;;;;;;18.96;39.41;101689.75;5227557;28;20059;-90
2023/05/19 12:18:32;;;;;;;0.20;0.20;;;;;;;18.87;40.21;101685.66;5242332;28;20074;-91
2023/05/19 12:21:22;;;;;;;0.20;0.20;;;;;;;19.09;38.89;101682.03;5247385;28;20060;-91
2023/05/19 12:24:13;;;;;;;0.40;0.40;;;;;;;19.21;38.37;101685.91;5237298;28;20013;-91
2023/05/19 12:27:12;;;;;;;0.55;0.45;;;;;;;19.32;39.01;101683.56;5230711;28;20090;-90
2023/05/19 12:30:04;;;;;;;1.20;0.50;;;;;;;19.21;38.36;101680.59;5229946;28;20029;-91
2023/05/19 12:32:58;;;;;;;0.50;0.50;;;;;;;19.21;37.90;101677.94;5226269;28;20041;-91
2023/05/19 12:35:50;;;;;;;0.47;0.47;;;;;;;19.22;38.88;101677.84;5242361;28;20036;-90
2023/05/19 12:38:42;;;;;;;0.20;0.20;;;;;;;19.33;37.90;101672.88;5234059;28;20029;-90
2023/05/19 12:41:33;;;;;;;0.40;0.40;;;;;;;19.75;38.59;101675.28;5235163;28;20044;-91
2023/05/19 12:44:24;;;;;;;0.47;0.47;;;;;;;19.55;36.54;101673.59;5230197;28;20092;-91
2023/05/19 12:47:16;;;;;;;0.20;0.20;;;;;;;19.38;38.27;101672.63;5228041;28;20118;-91
2023/05/19 12:50:10;;;;;;;0.45;0.45;;;;;;;19.64;36.24;101659.81;5246216;28;20020;-91
2023/05/19 12:53:01;;;;;;;0.63;0.63;;;;;;;19.76;37.41;101664.53;5235065;28;20021;-92
2023/05/19 12:55:52;;;;;;;1.38;1.27;;;;;;;19.81;36.64;101664.31;5225210;28;20032;-91
2023/05/19 12:58:44;;;;;;;0.35;0.35;;;;;;;19.54;37.40;101663.91;5237708;28;20021;-91
2023/05/19 13:01:35;;;;;;;0.28;0.28;;;;;;;19.46;37.22;101667.78;5242903;28;20083;-92
2023/05/19 13:04:27;;;;;;;0.47;0.47;;;;;;;19.49;37.86;101662.31;5247403;28;20064;-91
2023/05/19 13:07:19;;;;;;;0.43;0.43;;;;;;;19.84;35.79;101656.13;5236942;28;20543;-93
2023/05/19 13:18:02;;;;;;;0.22;0.22;;;;;;;20.13;36.81;101657.31;5212079;28;20059;-87
2023/05/19 13:20:53;;;;;;;0.20;0.20;;;;;;;19.96;36.55;101657.34;5206889;28;20032;-86
2023/05/19 13:23:45;;;;;;;0.45;0.40;;;;;;;19.98;37.38;101650.13;5195913;28;20029;-87
2023/05/19 13:26:35;;;;;;;0.20;0.20;;;;;;;20.35;34.89;101650.00;5184029;28;20033;-87
2023/05/19 13:29:27;;;;;;;4.57;1.20;;;;;;;20.25;35.64;101644.28;5188958;28;20030;-88